Conejos, Valles Caldera, New Mexico Weather observations

Data are for 10 minute period ending at time listed.
 Day   Time   Solar   Ave.   Ave.  Ave.  Vector  Max.   Baro.   Total    
  of    of     Rad.   Air    Rel.  Wind   Wind   Wind  Press.  Precip.   
Year   Day            Temp.  Hum.  Speed  Dir.   Gust                    
2014   (MST)  Kw/m2    F      %     mph   deg.    mph    mb.     in.     
-------------------------------------------------------------------------
 329   23:30   0.00   33.3    57    6.2   326    11.9   99999.0    0.00 
 329   23:40   0.00   33.6    57    6.7   317    11.9   99999.0    0.00 
 329   23:50   0.00   33.8    57    7.0   322    12.8   99999.0    0.00 
 330    0:00   0.00   34.0    56    6.4   326    18.5   99999.0    0.00 
 330    0:10   0.00   33.9    56    7.0   328    17.9   99999.0    0.00 
 330    0:20   0.00   33.8    56    6.0   328    13.1   99999.0    0.00 
 330    0:30   0.00   33.9    56    6.6   322    14.3   99999.0    0.00 
 330    0:40   0.00   33.7    56    5.5   322    12.5   99999.0    0.00 
 330    0:50   0.00   33.7    56    5.2   324    13.1   99999.0    0.00 
 330    1:00   0.00   33.9    56    5.5   321    11.3   99999.0    0.00 
 330    1:10   0.00   33.7    56    5.2   320    12.8   99999.0    0.00 
 330    1:20   0.00   33.4    56    4.6   322     8.4   99999.0    0.00 
 330    1:30   0.00   33.2    57    4.0   316     7.8   99999.0    0.00 
 330    1:40   0.00   33.1    57    4.4   318     9.6   99999.0    0.00 
 330    1:50   0.00   33.0    58    3.9   316     6.6   99999.0    0.00 
 330    2:00   0.00   32.8    59    4.1   324     9.0   99999.0    0.00 
 330    2:10   0.00   33.1    59    3.8   332     9.6   99999.0    0.00 
 330    2:20   0.00   32.6    60    3.6   321     9.0   99999.0    0.00 
 330    2:30   0.00   32.4    61    4.1   330     9.0   99999.0    0.00 
 330    2:40   0.00   32.9    60    4.3   331    13.1   99999.0    0.00 
 330    2:50   0.00   32.2    62    3.3   331     7.8   99999.0    0.00 
 330    3:00   0.00   32.1    62    3.7   335     7.2   99999.0    0.00 
 330    3:10   0.00   31.8    63    2.5   329     4.8   99999.0    0.00 
 330    3:20   0.00   30.8    65    3.3   330     7.8   99999.0    0.00 
 330    3:30   0.00   32.0    64    3.3   329     6.6   99999.0    0.00 
 330    3:40   0.00   32.5    62    4.1   320     9.0   99999.0    0.00 
 330    3:50   0.00   32.2    63    3.2   325     8.4   99999.0    0.00 
 330    4:00   0.00   32.1    63    3.3   323     9.3   99999.0    0.00 
 330    4:10   0.00   32.0    63    2.6   326     5.4   99999.0    0.00 
 330    4:20   0.00   31.6    64    3.1   329     6.0   99999.0    0.00 
 330    4:30   0.00   31.4    65    2.6   330     6.0   99999.0    0.00 
 330    4:40   0.00   31.1    66    2.2   322     5.4   99999.0    0.00 
 330    4:50   0.00   31.1    67    2.9   329     6.0   99999.0    0.00 
 330    5:00   0.00   31.2    67    3.1   333     8.4   99999.0    0.00 
 330    5:10   0.00   31.1    67    2.3   324     6.6   99999.0    0.00 
 330    5:20   0.00   30.2    69    2.0   328     5.4   99999.0    0.00 
 330    5:30   0.00   29.3    70    2.6   334     4.8   99999.0    0.00 
 330    5:40   0.00   29.8    70    3.2   333     8.4   99999.0    0.00 
 330    5:50   0.00   30.6    69    2.9   341     8.4   99999.0    0.00 
 330    6:00   0.00   30.6    69    3.0   347     7.2   99999.0    0.00 
 330    6:10   0.00   31.0    68    3.0   337     7.2   99999.0    0.00 
 330    6:20   0.00   30.2    68    2.5   339     6.6   99999.0    0.00 
 330    6:30   0.00   29.7    70    2.6   335     6.6   99999.0    0.00 
 330    6:40   0.00   29.9    71    2.6   326     5.4   99999.0    0.00 
 330    6:50   0.00   30.8    70    2.9   328     6.0   99999.0    0.00 
 330    7:00   0.00   30.7    70    2.4   323     7.2   99999.0    0.00 
 330    7:10   0.01   30.0    70    2.6   331     5.4   99999.0    0.00 
 330    7:20   0.01   31.2    70    2.8   330     7.2   99999.0    0.00 
 330    7:30   0.02   30.9    69    3.2   340     7.2   99999.0    0.00 
 330    7:40   0.02   32.5    67    3.8   336     7.8   99999.0    0.00 
 330    7:50   0.03   33.6    65    3.3   339     6.0   99999.0    0.00 
 330    8:00   0.04   33.7    65    2.7   340     5.4   99999.0    0.00 
 330    8:10   0.04   34.7    63    3.0   321     6.3   99999.0    0.00 
 330    8:20   0.07   35.6    61    3.6   326     9.6   99999.0    0.00 
 330    8:30   0.10   36.0    60    3.4   317     7.2   99999.0    0.00 
 330    8:40   0.18   36.7    59    3.6   316     9.0   99999.0    0.00 
 330    8:50   0.15   37.7    56    2.9   324     6.6   99999.0    0.00 
 330    9:00   0.07   38.1    55    3.6   319     7.2   99999.0    0.00 
 330    9:10   0.12   38.8    55    3.1   310     8.4   99999.0    0.00 
 330    9:20   0.40   39.9    52    3.3   316     7.8   99999.0    0.00 
 330    9:30   0.35   40.1    52    3.8   325    10.2   99999.0    0.00 
 330    9:40   0.17   41.1    50    3.3   336     6.6   99999.0    0.00 
 330    9:50   0.08   41.8    49    2.5   314     5.4   99999.0    0.00 
 330   10:00   0.07   42.0    48    3.0   305     6.6   99999.0    0.00 
 330   10:10   0.06   42.0    48    3.2   172     7.2   99999.0    0.00 
 330   10:20   0.32   41.6    48    2.8   246     5.4   99999.0    0.00 
 330   10:30   0.57   42.2    47    2.8   252     5.4   99999.0    0.00 
 330   10:40   0.58   42.5    45    3.4   225    10.2   99999.0    0.00 
 330   10:50   0.58   43.4    43    3.0   106     7.2   99999.0    0.00 
 330   11:00   0.60   44.2    40    2.0   243     6.0   99999.0    0.00 
 330   11:10   0.60   44.3    40    2.4   257     5.4   99999.0    0.00 
 330   11:20   0.61   45.5    38    2.9   118     5.4   99999.0    0.00 
 330   11:30   0.62   46.7    36    2.6   154     6.0   99999.0    0.00 
 330   11:40   0.62   47.6    36    3.2   257     7.2   99999.0    0.00 
 330   11:50   0.62   47.8    35    3.3     8     9.0   99999.0    0.00 
 330   12:00   0.61   48.7    33    3.7     3    10.2   99999.0    0.00 
 330   12:10   0.61   48.7    33    3.9   345     7.8   99999.0    0.00 
 330   12:20   0.60   49.0    33    3.3    30     9.0   99999.0    0.00 
 330   12:30   0.61   50.0    32    3.4   125    10.2   99999.0    0.00 
 330   12:40   0.54   50.9    30    3.2    83     7.2   99999.0    0.00 
 330   12:50   0.59   49.6    31    3.5    51     7.8   99999.0    0.00 
 330   13:00   0.58   49.6    31    3.8     5     8.4   99999.0    0.01 
 330   13:10   0.56   49.5    31    3.2    32     6.6   99999.0    0.00 
 330   13:20   0.55   49.3    31    3.1    17     6.0   99999.0    0.00 
 330   13:30   0.53   49.0    31    4.0   358     7.8   99999.0    0.00 
 330   13:40   0.47   47.7    31    4.9   329     9.6   99999.0    0.00 
 330   13:50   0.09   46.8    32    4.4   333     8.4   99999.0    0.00 
 330   14:00   0.04   47.6    31    4.3   348     8.4   99999.0    0.00 
 330   14:10   0.05   47.0    32    4.7   345     7.8   99999.0    0.00 
 330   14:20   0.09   47.3    31    4.5   347    10.2   99999.0    0.00 
 330   14:30   0.08   47.5    30    4.6   355     9.6   99999.0    0.00 
 330   14:40   0.06   47.6    30    4.5   332     8.4   99999.0    0.00 
 330   14:50   0.26   47.8    30    4.2   318     7.2   99999.0    0.00 
 330   15:00   0.25   48.2    29    3.4   302     7.2   99999.0    0.00 
 330   15:10   0.05   47.3    30    3.8   328     8.7   99999.0    0.00 
 330   15:20   0.10   47.0    31    3.2   313     8.4   99999.0    0.00 
 330   15:30   100.00  99999.0   99999  99999.0   99999   99999.0   99999.0   99999.00 
 330   15:40   100.00  99999.0   99999  99999.0   99999   99999.0   99999.0   99999.00 
 330   15:50   100.00  99999.0   99999  99999.0   99999   99999.0   99999.0   99999.00 
 330   16:00   100.00  99999.0   99999  99999.0   99999   99999.0   99999.0   99999.00 
 330   16:10   100.00  99999.0   99999  99999.0   99999   99999.0   99999.0   99999.00 
 330   16:20   100.00  99999.0   99999  99999.0   99999   99999.0   99999.0   99999.00 
 330   16:30   0.01   44.3    35    1.8     3     7.8   99999.0    0.00 
 330   16:40   0.01   44.1    35    2.1   310     5.7   99999.0    0.00 
 330   16:50   0.01   43.1    36    1.9   334     3.0   99999.0    0.00 
 330   17:00   0.00   41.1    39    2.7   338     6.0   99999.0    0.00 
 330   17:10   0.00   40.0    42    2.9   334     6.0   99999.0    0.00 
 330   17:20   100.00  99999.0   99999  99999.0   99999   99999.0   99999.0   99999.00 
 330   17:30   0.00   37.6    46    2.1   342     3.6   99999.0    0.00 
 330   17:40   0.00   37.4    46    2.4   344     3.6   99999.0    0.00 
 330   17:50   0.00   36.5    48    2.8   342     3.6   99999.0    0.00 
 330   18:00   0.00   37.3    48    2.5   340     3.6   99999.0    0.00 
 330   18:10   0.00   37.5    47    2.3   328     3.6   99999.0    0.00 
 330   18:20   0.00   37.6    48    1.8   317     4.2   99999.0    0.00 
 330   18:30   0.00   38.3    46    2.2   325     3.6   99999.0    0.00 
 330   18:40   0.00   36.5    50    2.8   333     4.2   99999.0    0.00 
 330   18:50   0.00   36.4    50    3.3   332     4.8   99999.0    0.00 
 330   19:00   0.00   35.2    53    3.1   334     4.8   99999.0    0.00 
 330   19:10   0.00   35.6    53    3.1   330     4.2   99999.0    0.00 
 330   19:20   0.00   33.8    55    2.9   343     3.6   99999.0    0.00 
 330   19:30   0.00   35.4    54    2.8   332     3.6   99999.0    0.00 
 330   19:40   0.00   35.7    52    2.4   328     3.6   99999.0    0.00 
 330   19:50   0.00   35.5    52    2.2   329     3.0   99999.0    0.00 
 330   20:00   0.00   33.2    56    1.4   329     2.4   99999.0    0.00 
 330   20:10   0.00   33.1    57    0.6   312     1.8   99999.0    0.00 
 330   20:20   0.00   32.2    58    0.0   289     1.2   99999.0    0.00 
 330   20:30   0.00   31.5    58    0.0   343     1.2   99999.0    0.00 
 330   20:40   0.00   34.4    52    1.0   290     2.4   99999.0    0.00 
 330   20:50   0.00   33.8    51    0.7     0     1.8   99999.0    0.00 
 330   21:00   0.00   32.3    54    1.8     8     3.6   99999.0    0.00 
 330   21:10   0.00   33.0    55    2.7   355     4.2   99999.0    0.00 
 330   21:20   0.00   35.7    50    2.6   341     4.8   99999.0    0.00 
 330   21:30   0.00   35.0    50    0.6   243     1.8   99999.0    0.00 
 330   21:40   0.00   33.5    53    1.6   167     3.6   99999.0    0.00 
 330   21:50   0.00   31.5    55    0.7   120     2.4   99999.0    0.00 
 330   22:00   0.00   30.4    57    2.1   162     3.6   99999.0    0.00 
 330   22:10   0.00   29.5    60    1.3   163     2.4   99999.0    0.00 
 330   22:20   0.00   29.7    60    1.3   171     2.4   99999.0    0.00 
 330   22:30   0.00   30.1    61    1.0   176     2.4   99999.0    0.00 
 330   22:40   0.00   29.8    61    1.3   170     2.4   99999.0    0.00 
 330   22:50   0.00   29.6    62    1.9   170     2.4   99999.0    0.00 
 330   23:00   0.00   29.2    64    1.7   159     3.0   99999.0    0.00 
 330   23:10   0.00   29.3    64    1.3   171     2.4   99999.0    0.00 
 330   23:20   0.00   30.1    64    0.7   196     2.4   99999.0    0.00 

Return to Conejos, Valles Caldera graphs page.


Western Regional Climate Center,wrcc@dri.edu